createdAt,value
2023-01-15T00:01:51.158Z,21.22
2023-01-15T00:04:18.290Z,21.20
2023-01-15T00:06:44.938Z,21.17
2023-01-15T00:09:15.159Z,21.17
2023-01-15T00:11:41.879Z,21.15
2023-01-15T00:14:08.539Z,21.16
2023-01-15T00:16:35.236Z,21.16
2023-01-15T00:19:04.364Z,21.13
2023-01-15T00:21:31.169Z,21.14
2023-01-15T00:24:16.388Z,21.12
2023-01-15T00:27:01.815Z,21.12
2023-01-15T00:29:28.411Z,21.12
2023-01-15T00:32:01.807Z,21.10
2023-01-15T00:34:29.900Z,21.11
2023-01-15T00:36:56.903Z,21.08
2023-01-15T00:39:24.235Z,21.06
2023-01-15T00:41:51.255Z,21.07
2023-01-15T00:44:18.393Z,21.07
2023-01-15T00:46:45.092Z,21.07
2023-01-15T00:49:12.181Z,21.04
2023-01-15T00:51:38.763Z,21.04
2023-01-15T00:54:05.996Z,21.03
2023-01-15T00:56:32.707Z,21.02
2023-01-15T00:59:02.182Z,21.02
2023-01-15T01:01:28.962Z,21.01
2023-01-15T01:03:55.658Z,21.02
2023-01-15T01:06:22.341Z,21.00
2023-01-15T01:08:49.089Z,21.01
2023-01-15T01:11:18.870Z,20.96
2023-01-15T01:13:46.615Z,20.97
2023-01-15T01:16:27.531Z,20.96
2023-01-15T01:18:55.220Z,20.96
2023-01-15T01:21:22.307Z,20.95
2023-01-15T01:23:48.983Z,20.95
2023-01-15T01:26:16.311Z,20.94
2023-01-15T01:28:43.143Z,20.94
2023-01-15T01:31:10.345Z,20.94
2023-01-15T01:33:36.964Z,20.94
2023-01-15T01:36:03.910Z,20.92
2023-01-15T01:38:30.610Z,20.92
2023-01-15T01:40:57.291Z,20.89
2023-01-15T01:43:29.884Z,20.89
2023-01-15T01:45:56.490Z,20.88
2023-01-15T01:48:33.878Z,20.86
2023-01-15T01:51:02.820Z,20.86
2023-01-15T01:53:32.073Z,20.87
2023-01-15T01:56:00.892Z,20.84
2023-01-15T01:58:31.858Z,20.84
2023-01-15T02:00:59.912Z,20.84
2023-01-15T02:03:32.243Z,20.82
2023-01-15T02:06:01.500Z,20.80
2023-01-15T02:08:28.607Z,20.81
2023-01-15T02:10:56.606Z,20.80
2023-01-15T02:13:38.362Z,20.79
2023-01-15T02:16:25.656Z,20.80
2023-01-15T02:19:28.619Z,20.77
2023-01-15T02:22:35.473Z,20.79
2023-01-15T02:25:08.371Z,20.77
2023-01-15T02:27:37.625Z,20.75
2023-01-15T02:30:09.380Z,20.76
2023-01-15T02:33:05.370Z,20.74
2023-01-15T02:35:38.141Z,20.74
2023-01-15T02:38:09.287Z,20.71
2023-01-15T02:40:37.635Z,20.71
2023-01-15T02:43:06.738Z,20.72
2023-01-15T02:45:37.023Z,20.71
2023-01-15T02:48:13.838Z,20.70
2023-01-15T02:50:46.114Z,20.70
2023-01-15T02:53:17.810Z,20.70
2023-01-15T02:55:49.399Z,20.68
2023-01-15T02:58:26.184Z,20.67
2023-01-15T03:00:56.899Z,20.68
2023-01-15T03:03:42.404Z,20.66
2023-01-15T03:06:16.768Z,20.66
2023-01-15T03:08:43.537Z,20.65
2023-01-15T03:11:19.433Z,20.66
2023-01-15T03:13:52.732Z,20.63
2023-01-15T03:16:38.245Z,20.64
2023-01-15T03:19:10.851Z,20.63
2023-01-15T03:21:44.588Z,20.60
2023-01-15T03:24:15.277Z,20.58
2023-01-15T03:26:42.211Z,20.59
2023-01-15T03:29:10.440Z,20.59
2023-01-15T03:31:37.849Z,20.57
2023-01-15T03:34:04.462Z,20.57
2023-01-15T03:36:30.961Z,20.57
2023-01-15T03:38:58.876Z,20.55
2023-01-15T03:41:28.281Z,20.54
2023-01-15T03:44:13.442Z,20.53
2023-01-15T03:47:01.822Z,20.53
2023-01-15T03:49:59.328Z,20.54
2023-01-15T03:52:32.040Z,20.50
2023-01-15T03:55:14.012Z,20.49
2023-01-15T03:58:08.401Z,20.50
2023-01-15T04:00:47.692Z,20.49
2023-01-15T04:03:15.353Z,20.48
2023-01-15T04:05:42.578Z,20.49
2023-01-15T04:08:10.265Z,20.48
2023-01-15T04:10:36.826Z,20.48
2023-01-15T04:13:03.682Z,20.46
2023-01-15T04:15:30.227Z,20.48
2023-01-15T04:17:56.769Z,20.44
2023-01-15T04:20:23.242Z,20.42
2023-01-15T04:22:49.760Z,20.42
2023-01-15T04:25:16.373Z,20.43
2023-01-15T04:27:42.844Z,20.42
2023-01-15T04:30:09.987Z,20.41
2023-01-15T04:32:36.483Z,20.41
2023-01-15T04:35:03.012Z,20.40
2023-01-15T04:37:29.662Z,20.37
2023-01-15T04:39:56.145Z,20.37
2023-01-15T04:42:41.193Z,20.41
2023-01-15T04:45:08.277Z,20.37
2023-01-15T04:47:34.828Z,20.37
2023-01-15T04:50:01.607Z,20.36
2023-01-15T04:52:28.313Z,20.36
2023-01-15T04:54:56.106Z,20.35
2023-01-15T04:57:23.020Z,20.35
2023-01-15T04:59:49.655Z,20.33
2023-01-15T05:02:16.469Z,20.32
2023-01-15T05:04:43.043Z,20.33
2023-01-15T05:07:10.145Z,20.36
2023-01-15T05:09:37.074Z,20.41
2023-01-15T05:12:03.898Z,20.48
2023-01-15T05:14:30.469Z,20.54
2023-01-15T05:16:56.948Z,20.60
2023-01-15T05:19:23.426Z,20.66
2023-01-15T05:21:51.446Z,20.69
2023-01-15T05:24:18.393Z,20.72
2023-01-15T05:26:45.364Z,20.73
2023-01-15T05:29:13.316Z,20.75
2023-01-15T05:31:40.095Z,20.77
2023-01-15T05:34:06.740Z,20.77
2023-01-15T05:36:33.504Z,20.79
2023-01-15T05:39:01.931Z,20.79
2023-01-15T05:41:48.745Z,20.80
2023-01-15T05:44:35.643Z,20.79
2023-01-15T05:47:05.832Z,20.78
2023-01-15T05:49:32.351Z,20.78
2023-01-15T05:52:00.757Z,20.79
2023-01-15T05:54:34.062Z,20.80
2023-01-15T05:57:01.592Z,20.82
2023-01-15T05:59:30.139Z,20.84
2023-01-15T06:01:57.260Z,20.86
2023-01-15T06:04:25.176Z,20.87
2023-01-15T06:06:54.020Z,20.86
2023-01-15T06:09:20.638Z,20.88
2023-01-15T06:11:47.487Z,20.88
2023-01-15T06:14:14.368Z,20.89
2023-01-15T06:16:41.618Z,20.90
2023-01-15T06:19:09.276Z,20.91
2023-01-15T06:21:36.409Z,20.93
2023-01-15T06:24:03.692Z,20.91
2023-01-15T06:26:30.248Z,20.91
2023-01-15T06:28:57.064Z,20.93
2023-01-15T06:31:26.782Z,20.95
2023-01-15T06:33:53.576Z,20.94
2023-01-15T06:36:22.834Z,20.95
2023-01-15T06:38:49.876Z,20.97
2023-01-15T06:41:44.283Z,20.99
2023-01-15T06:44:37.768Z,21.00
2023-01-15T06:47:22.253Z,21.00
2023-01-15T06:49:55.703Z,20.99
2023-01-15T06:52:24.080Z,21.01
2023-01-15T06:54:50.796Z,21.03
2023-01-15T06:57:18.981Z,21.04
2023-01-15T06:59:45.849Z,21.06
2023-01-15T07:02:12.883Z,21.06
2023-01-15T07:04:39.579Z,21.05
2023-01-15T07:07:06.276Z,21.05
2023-01-15T07:09:33.067Z,21.06
2023-01-15T07:11:59.734Z,21.07
2023-01-15T07:14:31.170Z,21.06
2023-01-15T07:16:59.349Z,21.07
2023-01-15T07:19:27.263Z,21.09
2023-01-15T07:21:54.332Z,21.10
2023-01-15T07:24:20.853Z,21.10
2023-01-15T07:26:47.442Z,21.10
2023-01-15T07:29:14.581Z,21.10
2023-01-15T07:31:41.633Z,21.10
2023-01-15T07:34:08.922Z,21.09
2023-01-15T07:36:36.100Z,21.12
2023-01-15T07:39:06.626Z,21.14
2023-01-15T07:41:52.190Z,21.14
2023-01-15T07:44:37.842Z,21.14
2023-01-15T07:47:34.636Z,21.12
2023-01-15T07:50:02.347Z,21.14
2023-01-15T07:52:28.944Z,21.15
2023-01-15T07:54:55.472Z,21.16
2023-01-15T07:57:22.694Z,21.18
2023-01-15T07:59:50.366Z,21.19
2023-01-15T08:02:17.820Z,21.19
2023-01-15T08:04:44.631Z,21.19
2023-01-15T08:07:11.306Z,21.20
2023-01-15T08:09:38.944Z,21.19
2023-01-15T08:12:24.806Z,21.19
2023-01-15T08:15:10.116Z,21.20
2023-01-15T08:17:38.233Z,21.22
2023-01-15T08:20:06.873Z,21.22
2023-01-15T08:22:33.680Z,21.21
2023-01-15T08:25:00.222Z,21.21
2023-01-15T08:27:27.295Z,21.21
2023-01-15T08:29:53.870Z,21.22
2023-01-15T08:32:20.461Z,21.22
2023-01-15T08:34:46.945Z,21.21
2023-01-15T08:37:13.811Z,21.22
2023-01-15T08:39:40.432Z,21.23
2023-01-15T08:42:07.089Z,21.24
2023-01-15T08:44:33.767Z,21.23
2023-01-15T08:47:00.516Z,21.22
2023-01-15T08:49:27.519Z,21.21
2023-01-15T08:51:54.037Z,21.23
2023-01-15T08:54:22.396Z,21.23
2023-01-15T08:56:49.990Z,21.25
2023-01-15T08:59:17.182Z,21.25
2023-01-15T09:01:44.928Z,21.23
2023-01-15T09:04:23.280Z,21.23
2023-01-15T09:06:50.018Z,21.23
2023-01-15T09:09:18.778Z,21.23
2023-01-15T09:11:45.849Z,21.25
2023-01-15T09:14:59.171Z,21.23
2023-01-15T09:17:02.057Z,21.24
2023-01-15T09:19:28.796Z,21.26
2023-01-15T09:21:55.321Z,21.25
2023-01-15T09:24:22.128Z,21.25
2023-01-15T09:26:48.922Z,21.23
2023-01-15T09:29:15.562Z,21.22
2023-01-15T09:31:42.318Z,21.23
2023-01-15T09:34:08.905Z,21.23
2023-01-15T09:36:35.787Z,21.25
2023-01-15T09:39:03.924Z,21.27
2023-01-15T09:42:08.274Z,21.28
2023-01-15T09:44:53.378Z,21.26
2023-01-15T09:47:39.311Z,21.26
2023-01-15T09:50:39.859Z,21.26
2023-01-15T09:53:25.453Z,21.28
2023-01-15T09:55:53.316Z,21.27
2023-01-15T09:58:24.809Z,21.27
2023-01-15T10:00:52.349Z,21.27
2023-01-15T10:03:39.476Z,21.27
2023-01-15T10:06:15.410Z,21.26
2023-01-15T10:08:46.337Z,21.27
2023-01-15T10:11:15.944Z,21.26
2023-01-15T10:14:00.148Z,21.27
2023-01-15T10:16:29.282Z,21.28
2023-01-15T10:18:58.295Z,21.28
2023-01-15T10:21:44.625Z,21.26
2023-01-15T10:24:30.088Z,21.28
2023-01-15T10:26:59.062Z,21.26
2023-01-15T10:29:44.050Z,21.27
2023-01-15T10:32:35.625Z,21.26
2023-01-15T10:35:17.367Z,21.31
2023-01-15T10:37:49.298Z,21.36
2023-01-15T10:40:43.658Z,21.50
2023-01-15T10:43:40.491Z,21.38
2023-01-15T10:46:16.758Z,21.40
2023-01-15T10:48:51.247Z,21.43
2023-01-15T10:51:42.196Z,21.49
2023-01-15T10:54:17.119Z,21.54
2023-01-15T10:58:52.504Z,21.68
2023-01-15T11:01:23.640Z,21.53
2023-01-15T11:03:50.345Z,21.44
2023-01-15T11:06:19.481Z,21.40
2023-01-15T11:09:10.314Z,21.40
2023-01-15T11:12:01.966Z,21.36
2023-01-15T11:15:01.280Z,21.35
2023-01-15T11:18:02.087Z,21.37
2023-01-15T11:20:31.467Z,21.37
2023-01-15T11:23:08.712Z,21.35
2023-01-15T11:25:35.648Z,21.34
2023-01-15T11:28:07.430Z,21.33
2023-01-15T11:30:38.238Z,21.33
2023-01-15T11:33:20.176Z,21.32
2023-01-15T11:35:58.795Z,21.31
2023-01-15T11:38:43.036Z,21.32
2023-01-15T11:41:49.815Z,21.33
2023-01-15T11:44:37.977Z,21.33
2023-01-15T11:47:30.025Z,21.31
2023-01-15T11:50:15.356Z,21.30
2023-01-15T11:52:46.634Z,21.31
2023-01-15T11:55:17.846Z,21.32
2023-01-15T11:57:45.547Z,21.32
2023-01-15T12:00:21.747Z,21.32
2023-01-15T12:02:50.871Z,21.31
2023-01-15T12:05:24.526Z,21.31
2023-01-15T12:07:55.075Z,21.37
2023-01-15T12:10:41.233Z,21.46
2023-01-15T12:13:32.382Z,21.54
2023-01-15T12:16:37.443Z,21.54
2023-01-15T12:19:22.615Z,21.49
2023-01-15T12:22:28.278Z,21.47
2023-01-15T12:25:22.784Z,21.47
2023-01-15T12:27:59.452Z,21.45
2023-01-15T12:30:55.020Z,21.42
2023-01-15T12:33:45.568Z,21.43
2023-01-15T12:36:53.345Z,21.39
2023-01-15T12:39:30.423Z,21.38
2023-01-15T12:42:26.392Z,21.39
2023-01-15T12:45:01.296Z,21.41
2023-01-15T12:47:35.090Z,21.40
2023-01-15T12:50:15.814Z,21.40
2023-01-15T12:52:46.508Z,21.38
2023-01-15T12:55:21.350Z,21.42
2023-01-15T12:57:53.587Z,21.40
2023-01-15T13:00:43.894Z,21.42
2023-01-15T13:03:34.874Z,21.42
2023-01-15T13:06:05.477Z,21.43
2023-01-15T13:08:41.371Z,21.41
2023-01-15T13:11:12.191Z,21.39
2023-01-15T13:13:41.377Z,21.39
2023-01-15T13:16:35.667Z,21.42
2023-01-15T13:19:25.570Z,21.45
2023-01-15T13:21:55.476Z,21.44
2023-01-15T13:24:31.570Z,21.46
2023-01-15T13:27:10.752Z,21.47
2023-01-15T13:29:59.596Z,21.47
2023-01-15T13:32:34.422Z,21.47
2023-01-15T13:35:18.543Z,21.48
2023-01-15T13:37:48.799Z,21.48
2023-01-15T13:40:24.452Z,21.47
2023-01-15T13:42:52.252Z,21.46
2023-01-15T13:45:38.869Z,21.45
2023-01-15T13:48:16.832Z,21.46
2023-01-15T13:50:57.470Z,21.46
2023-01-15T13:53:31.806Z,21.45
2023-01-15T13:56:25.068Z,21.47
2023-01-15T13:59:06.465Z,21.48
2023-01-15T14:01:36.329Z,21.48
2023-01-15T14:04:17.764Z,21.48
2023-01-15T14:06:46.100Z,21.46
2023-01-15T14:09:14.556Z,21.47
2023-01-15T14:11:47.234Z,21.49
2023-01-15T14:14:49.404Z,21.47
2023-01-15T14:17:43.703Z,21.49
2023-01-15T14:20:30.604Z,21.48
2023-01-15T14:23:35.780Z,21.47
2023-01-15T14:26:28.022Z,21.45
2023-01-15T14:28:57.323Z,21.45
2023-01-15T14:31:32.849Z,21.44
2023-01-15T14:34:33.057Z,21.44
2023-01-15T14:37:04.630Z,21.44
2023-01-15T14:39:52.077Z,21.44
2023-01-15T14:42:40.315Z,21.44
2023-01-15T14:45:13.031Z,21.45
2023-01-15T14:47:48.941Z,21.43
2023-01-15T14:50:28.030Z,21.42
2023-01-15T14:52:59.215Z,21.40
2023-01-15T14:55:26.552Z,21.42
2023-01-15T14:58:01.414Z,21.45
2023-01-15T15:00:35.855Z,21.45
2023-01-15T15:03:05.305Z,21.46
2023-01-15T15:05:34.276Z,21.45
2023-01-15T15:08:01.220Z,21.44
2023-01-15T15:10:36.561Z,21.44
2023-01-15T15:13:19.621Z,21.43
2023-01-15T15:15:54.295Z,21.43
2023-01-15T15:18:41.132Z,21.43
2023-01-15T15:21:22.506Z,21.41
2023-01-15T15:24:05.274Z,21.39
2023-01-15T15:26:34.719Z,21.37
2023-01-15T15:29:22.115Z,21.36
2023-01-15T15:31:53.598Z,21.33
2023-01-15T15:34:29.355Z,21.34
2023-01-15T15:37:01.310Z,21.39
2023-01-15T15:39:58.339Z,21.40
2023-01-15T15:42:49.069Z,21.42
2023-01-15T15:45:37.472Z,21.43
2023-01-15T15:48:31.366Z,21.42
2023-01-15T15:50:58.897Z,21.40
2023-01-15T15:53:25.436Z,21.42
2023-01-15T15:55:55.037Z,21.43
2023-01-15T15:58:35.440Z,21.39
2023-01-15T16:01:02.648Z,21.40
2023-01-15T16:03:33.151Z,21.38
2023-01-15T16:06:00.250Z,21.38
2023-01-15T16:08:28.713Z,21.38
2023-01-15T16:11:01.446Z,21.38
2023-01-15T16:13:40.292Z,21.36
2023-01-15T16:16:08.539Z,21.36
2023-01-15T16:18:41.194Z,21.37
2023-01-15T16:21:09.536Z,21.37
2023-01-15T16:23:36.096Z,21.36
2023-01-15T16:26:19.836Z,21.32
2023-01-15T16:28:55.299Z,21.33
2023-01-15T16:31:23.066Z,21.30
2023-01-15T16:33:57.908Z,21.28
2023-01-15T16:36:26.632Z,21.30
2023-01-15T16:38:54.540Z,21.32
2023-01-15T16:41:28.405Z,21.33
2023-01-15T16:43:57.422Z,21.30
2023-01-15T16:46:28.194Z,21.29
2023-01-15T16:49:23.124Z,21.27
2023-01-15T16:51:53.915Z,21.27
2023-01-15T16:54:29.599Z,21.26
2023-01-15T16:56:59.000Z,21.24
2023-01-15T16:59:28.585Z,21.25
2023-01-15T17:01:59.966Z,21.27
2023-01-15T17:04:31.556Z,21.27
2023-01-15T17:07:01.741Z,21.29
2023-01-15T17:09:32.133Z,21.28
2023-01-15T17:12:02.337Z,21.28
2023-01-15T17:14:31.485Z,21.31
2023-01-15T17:17:17.272Z,21.34
2023-01-15T17:19:44.042Z,21.38
2023-01-15T17:22:37.216Z,21.37
2023-01-15T17:25:22.678Z,21.42
2023-01-15T17:27:49.387Z,21.47
2023-01-15T17:30:16.636Z,21.50
2023-01-15T17:32:43.259Z,21.46
2023-01-15T17:35:24.107Z,21.46
2023-01-15T17:37:50.771Z,21.44
2023-01-15T17:40:17.658Z,21.43
2023-01-15T17:42:44.808Z,21.42
2023-01-15T17:45:29.222Z,21.41
2023-01-15T17:47:55.912Z,21.38
2023-01-15T17:50:23.101Z,21.35
2023-01-15T17:52:50.157Z,21.37
2023-01-15T17:55:42.459Z,21.36
2023-01-15T17:58:31.121Z,21.39
2023-01-15T18:01:16.873Z,21.39
2023-01-15T18:04:09.694Z,21.39
2023-01-15T18:06:36.547Z,21.40
2023-01-15T18:09:05.857Z,21.39
2023-01-15T18:11:32.425Z,21.38
2023-01-15T18:13:58.986Z,21.37
2023-01-15T18:16:26.743Z,21.37
2023-01-15T18:18:54.048Z,21.37
2023-01-15T18:21:21.308Z,21.38
2023-01-15T18:23:47.884Z,21.39
2023-01-15T18:26:14.466Z,21.42
2023-01-15T18:28:41.198Z,21.49
2023-01-15T18:31:08.183Z,21.49
2023-01-15T18:33:34.906Z,21.53
2023-01-15T18:36:12.595Z,21.52
2023-01-15T18:38:41.178Z,21.50
2023-01-15T18:41:34.980Z,21.49
2023-01-15T18:44:30.849Z,21.47
2023-01-15T18:47:00.033Z,21.46
2023-01-15T18:49:26.733Z,21.44
2023-01-15T18:52:12.290Z,21.43
2023-01-15T18:54:38.936Z,21.51
2023-01-15T18:57:05.476Z,21.50
2023-01-15T18:59:32.229Z,21.46
2023-01-15T19:01:58.997Z,21.44
2023-01-15T19:04:26.344Z,21.42
2023-01-15T19:06:53.374Z,21.42
2023-01-15T19:09:21.366Z,21.40
2023-01-15T19:11:47.893Z,21.38
2023-01-15T19:14:33.120Z,21.36
2023-01-15T19:17:17.868Z,21.35
2023-01-15T19:19:44.433Z,21.34
2023-01-15T19:22:29.444Z,21.33
2023-01-15T19:24:56.541Z,21.33
2023-01-15T19:27:23.690Z,21.30
2023-01-15T19:29:50.704Z,21.29
2023-01-15T19:32:17.290Z,21.28
2023-01-15T19:34:43.960Z,21.29
2023-01-15T19:37:10.552Z,21.34
2023-01-15T19:39:37.052Z,21.34
2023-01-15T19:42:22.301Z,21.35
2023-01-15T19:45:07.379Z,21.34
2023-01-15T19:47:55.467Z,21.33
2023-01-15T19:50:27.757Z,21.34
2023-01-15T19:52:55.252Z,21.32
2023-01-15T19:55:24.020Z,21.30
2023-01-15T19:58:02.781Z,21.30
2023-01-15T20:00:30.818Z,21.31
2023-01-15T20:02:58.232Z,21.30
2023-01-15T20:05:27.255Z,21.29
2023-01-15T20:07:54.133Z,21.26
2023-01-15T20:10:23.502Z,21.23
2023-01-15T20:13:09.526Z,21.21
2023-01-15T20:15:41.134Z,21.24
2023-01-15T20:18:07.781Z,21.29
2023-01-15T20:20:34.959Z,21.28
2023-01-15T20:23:01.792Z,21.30
2023-01-15T20:25:29.909Z,21.29
2023-01-15T20:27:57.933Z,21.31
2023-01-15T20:30:25.730Z,21.30
2023-01-15T20:32:54.694Z,21.31
2023-01-15T20:35:24.084Z,21.30
2023-01-15T20:37:51.361Z,21.28
2023-01-15T20:40:26.285Z,21.26
2023-01-15T20:43:13.616Z,21.26
2023-01-15T20:45:40.786Z,21.20
2023-01-15T20:48:13.485Z,21.17
2023-01-15T20:51:01.025Z,21.11
2023-01-15T20:53:49.548Z,21.08
2023-01-15T20:56:16.824Z,21.08
2023-01-15T20:58:43.358Z,21.03
2023-01-15T21:01:11.087Z,21.01
2023-01-15T21:03:39.098Z,20.97
2023-01-15T21:06:07.020Z,20.96
2023-01-15T21:08:34.122Z,20.94
2023-01-15T21:11:01.089Z,20.94
2023-01-15T21:13:27.755Z,20.95
2023-01-15T21:16:01.037Z,20.97
2023-01-15T21:18:30.193Z,20.96
2023-01-15T21:20:56.868Z,20.95
2023-01-15T21:23:24.297Z,20.93
2023-01-15T21:25:51.087Z,20.93
2023-01-15T21:28:17.824Z,20.93
2023-01-15T21:30:45.368Z,20.90
2023-01-15T21:33:11.875Z,20.92
2023-01-15T21:35:40.484Z,20.92
2023-01-15T21:38:08.435Z,20.90
2023-01-15T21:40:37.409Z,20.88
2023-01-15T21:43:23.518Z,20.88
2023-01-15T21:45:51.115Z,20.86
2023-01-15T21:48:18.598Z,20.85
2023-01-15T21:50:45.189Z,20.83
2023-01-15T21:53:11.968Z,20.83
2023-01-15T21:55:38.792Z,20.81
2023-01-15T21:58:05.308Z,20.77
2023-01-15T22:00:32.088Z,20.78
2023-01-15T22:02:58.712Z,20.77
2023-01-15T22:05:25.342Z,20.74
2023-01-15T22:07:51.908Z,20.73
2023-01-15T22:10:18.758Z,20.74
2023-01-15T22:12:45.222Z,20.74
2023-01-15T22:15:12.240Z,20.74
2023-01-15T22:17:38.934Z,20.73
2023-01-15T22:20:07.137Z,20.69
2023-01-15T22:22:36.323Z,20.70
2023-01-15T22:25:05.021Z,20.68
2023-01-15T22:27:34.439Z,20.67
2023-01-15T22:30:01.228Z,20.66
2023-01-15T22:32:27.741Z,20.67
2023-01-15T22:34:54.340Z,20.67
2023-01-15T22:37:20.865Z,20.66
2023-01-15T22:39:47.971Z,20.60
2023-01-15T22:42:31.165Z,20.64
2023-01-15T22:45:00.162Z,20.61
2023-01-15T22:47:30.719Z,20.60
2023-01-15T22:49:57.638Z,20.57
2023-01-15T22:52:25.850Z,20.56
2023-01-15T22:54:52.700Z,20.55
2023-01-15T22:57:20.131Z,20.53
2023-01-15T22:59:46.713Z,20.54
2023-01-15T23:02:13.422Z,20.52
2023-01-15T23:04:40.023Z,20.52
2023-01-15T23:07:06.762Z,20.50
2023-01-15T23:09:33.581Z,20.48
2023-01-15T23:12:00.096Z,20.48
2023-01-15T23:14:26.915Z,20.47
2023-01-15T23:16:53.433Z,20.47
2023-01-15T23:19:20.431Z,20.46
2023-01-15T23:21:47.007Z,20.46
2023-01-15T23:24:13.527Z,20.46
2023-01-15T23:26:40.724Z,20.42
2023-01-15T23:29:07.688Z,20.42
2023-01-15T23:31:34.347Z,20.41
2023-01-15T23:34:01.111Z,20.39
2023-01-15T23:36:27.837Z,20.40
2023-01-15T23:38:54.708Z,20.38
2023-01-15T23:41:43.197Z,20.37
2023-01-15T23:44:34.196Z,20.37
2023-01-15T23:47:01.000Z,20.34
2023-01-15T23:49:27.660Z,20.36
2023-01-15T23:51:54.175Z,20.33
2023-01-15T23:54:20.735Z,20.34
2023-01-15T23:56:48.872Z,20.33
2023-01-15T23:59:15.721Z,20.29
